createdAt,value
2019-05-21T00:00:21.420Z,26.1
2019-05-21T00:01:23.592Z,26.1
2019-05-21T00:02:26.064Z,26.1
2019-05-21T00:03:28.487Z,26.1
2019-05-21T00:04:30.646Z,26.1
2019-05-21T00:05:32.802Z,26.1
2019-05-21T00:06:34.966Z,26.2
2019-05-21T00:07:37.402Z,26.2
2019-05-21T00:08:39.834Z,26.2
2019-05-21T00:09:42.258Z,26.2
2019-05-21T00:10:44.714Z,26.2
2019-05-21T00:11:47.129Z,26.2
2019-05-21T00:12:49.298Z,26.2
2019-05-21T00:13:51.966Z,26.2
2019-05-21T00:14:54.393Z,26.2
2019-05-21T00:15:56.822Z,26.2
2019-05-21T00:16:59.246Z,26.2
2019-05-21T00:18:01.406Z,26.2
2019-05-21T00:19:03.553Z,26.2
2019-05-21T00:20:05.438Z,26.2
2019-05-21T00:21:07.874Z,26.3
2019-05-21T00:22:10.065Z,26.3
2019-05-21T00:23:12.532Z,26.3
2019-05-21T00:24:14.967Z,26.3
2019-05-21T00:25:18.158Z,26.3
2019-05-21T00:26:20.047Z,26.3
2019-05-21T00:27:22.213Z,26.3
2019-05-21T00:28:24.388Z,26.3
2019-05-21T00:29:26.536Z,26.3
2019-05-21T00:30:28.706Z,26.3
2019-05-21T00:31:31.156Z,26.3
2019-05-21T00:32:33.321Z,26.3
2019-05-21T00:33:35.754Z,26.3
2019-05-21T00:35:43.172Z,26.3
2019-05-21T00:36:45.359Z,26.3
2019-05-21T00:37:47.516Z,26.3
2019-05-21T00:39:54.637Z,26.3
2019-05-21T00:40:56.801Z,26.3
2019-05-21T00:41:58.408Z,26.3
2019-05-21T00:43:00.318Z,26.3
2019-05-21T00:44:02.757Z,26.3
2019-05-21T00:45:05.195Z,26.3
2019-05-21T00:46:07.332Z,26.3
2019-05-21T00:47:09.826Z,26.4
2019-05-21T00:48:12.248Z,26.4
2019-05-21T00:49:14.338Z,26.3
2019-05-21T00:50:16.768Z,26.4
2019-05-21T00:51:18.918Z,26.4
2019-05-21T00:52:21.458Z,26.4
2019-05-21T00:53:23.879Z,26.4
2019-05-21T00:54:26.040Z,26.4
2019-05-21T00:55:28.480Z,26.4
2019-05-21T00:56:30.933Z,26.4
2019-05-21T00:57:33.096Z,26.4
2019-05-21T00:58:35.527Z,26.4
2019-05-21T00:59:37.962Z,26.4
2019-05-21T01:00:39.847Z,26.4
2019-05-21T01:01:42.287Z,26.4
2019-05-21T01:02:44.715Z,26.4
2019-05-21T01:03:47.278Z,26.4
2019-05-21T01:05:54.692Z,26.4
2019-05-21T01:06:56.865Z,26.4
2019-05-21T01:07:59.301Z,26.4
2019-05-21T01:09:01.748Z,26.4
2019-05-21T01:10:04.246Z,26.4
2019-05-21T01:11:06.426Z,26.4
2019-05-21T01:12:08.858Z,26.4
2019-05-21T01:13:11.015Z,26.4
2019-05-21T01:14:13.181Z,26.4
2019-05-21T01:15:15.348Z,26.4
2019-05-21T01:16:17.514Z,26.4
2019-05-21T01:17:19.663Z,26.4
2019-05-21T01:18:21.830Z,26.4
2019-05-21T01:19:24.262Z,26.4
2019-05-21T01:20:26.734Z,26.4
2019-05-21T01:21:29.194Z,26.4
2019-05-21T01:22:31.624Z,26.4
2019-05-21T01:23:33.799Z,26.4
2019-05-21T01:24:35.970Z,26.4
2019-05-21T01:25:37.857Z,26.4
2019-05-21T01:26:40.028Z,26.4
2019-05-21T01:27:42.485Z,26.4
2019-05-21T01:28:44.934Z,26.4
2019-05-21T01:29:47.118Z,26.4
2019-05-21T01:30:49.557Z,26.4
2019-05-21T01:31:51.716Z,26.4
2019-05-21T01:32:54.144Z,26.4
2019-05-21T01:33:56.292Z,26.4
2019-05-21T01:34:58.715Z,26.4
2019-05-21T01:36:05.614Z,26.5
2019-05-21T01:37:07.799Z,26.5
2019-05-21T01:38:10.291Z,26.5
2019-05-21T01:39:12.192Z,26.5
2019-05-21T01:40:14.624Z,26.5
2019-05-21T01:41:17.057Z,26.5
2019-05-21T01:42:19.212Z,26.5
2019-05-21T01:43:21.633Z,26.5
2019-05-21T01:44:24.066Z,26.5
2019-05-21T01:45:26.224Z,26.5
2019-05-21T01:46:28.668Z,26.5
2019-05-21T01:47:30.826Z,26.5
2019-05-21T01:48:32.987Z,26.5
2019-05-21T01:49:35.420Z,26.5
2019-05-21T01:50:37.777Z,26.5
2019-05-21T01:51:40.206Z,26.5
2019-05-21T01:52:42.635Z,26.5
2019-05-21T01:53:44.820Z,26.5
2019-05-21T01:54:46.954Z,26.5
2019-05-21T01:55:49.104Z,26.5
2019-05-21T01:56:51.608Z,26.5
2019-05-21T01:57:53.796Z,26.5
2019-05-21T01:58:55.677Z,26.5
2019-05-21T01:59:58.105Z,26.5
2019-05-21T02:01:00.528Z,26.5
2019-05-21T02:02:02.869Z,26.5
2019-05-21T02:03:05.306Z,26.5
2019-05-21T02:04:07.438Z,26.5
2019-05-21T02:05:09.596Z,26.5
2019-05-21T02:06:12.051Z,26.5
2019-05-21T02:07:14.498Z,26.5
2019-05-21T02:08:16.963Z,26.5
2019-05-21T02:09:19.399Z,26.5
2019-05-21T02:10:21.576Z,26.5
2019-05-21T02:11:23.742Z,26.5
2019-05-21T02:12:26.176Z,26.5
2019-05-21T02:13:28.603Z,26.5
2019-05-21T02:14:30.774Z,26.5
2019-05-21T02:15:32.920Z,26.5
2019-05-21T02:16:34.555Z,26.5
2019-05-21T02:17:36.715Z,26.5
2019-05-21T02:18:39.220Z,26.5
2019-05-21T02:19:41.374Z,26.5
2019-05-21T02:20:43.812Z,26.5
2019-05-21T02:21:45.976Z,26.5
2019-05-21T02:22:47.848Z,26.5
2019-05-21T02:23:50.304Z,26.5
2019-05-21T02:24:52.464Z,26.5
2019-05-21T02:25:54.645Z,26.5
2019-05-21T02:26:57.007Z,26.5
2019-05-21T02:27:59.168Z,26.5
2019-05-21T02:29:01.589Z,26.5
2019-05-21T02:30:06.810Z,26.5
2019-05-21T02:31:12.367Z,26.5
2019-05-21T02:32:14.802Z,26.5
2019-05-21T02:33:17.230Z,26.5
2019-05-21T02:34:19.409Z,26.5
2019-05-21T02:35:21.851Z,26.5
2019-05-21T02:36:24.283Z,26.5
2019-05-21T02:37:27.064Z,26.5
2019-05-21T02:38:29.468Z,26.5
2019-05-21T02:39:31.906Z,26.5
2019-05-21T02:40:33.788Z,26.5
2019-05-21T02:41:36.212Z,26.5
2019-05-21T02:42:38.374Z,26.5
2019-05-21T02:43:40.808Z,26.5
2019-05-21T02:44:43.249Z,26.5
2019-05-21T02:45:45.689Z,26.5
2019-05-21T02:46:48.117Z,26.5
2019-05-21T02:47:50.545Z,26.5
2019-05-21T02:48:52.717Z,26.5
2019-05-21T02:49:54.872Z,26.5
2019-05-21T02:50:57.318Z,26.5
2019-05-21T02:51:59.745Z,26.5
2019-05-21T02:53:02.173Z,26.5
2019-05-21T02:54:04.680Z,26.5
2019-05-21T02:55:07.104Z,26.5
2019-05-21T02:56:09.277Z,26.5
2019-05-21T02:57:11.725Z,26.5
2019-05-21T02:58:14.164Z,26.5
2019-05-21T02:59:16.614Z,26.5
2019-05-21T03:00:19.391Z,26.5
2019-05-21T03:01:21.857Z,26.5
2019-05-21T03:02:24.020Z,26.5
2019-05-21T03:03:26.204Z,26.5
2019-05-21T03:04:28.640Z,26.5
2019-05-21T03:05:30.798Z,26.5
2019-05-21T03:06:32.661Z,26.4
2019-05-21T03:07:34.807Z,26.4
2019-05-21T03:08:37.249Z,26.4
2019-05-21T03:09:39.767Z,26.4
2019-05-21T03:10:42.195Z,26.3
2019-05-21T03:11:44.633Z,26.3
2019-05-21T03:12:47.062Z,26.3
2019-05-21T03:13:49.220Z,26.3
2019-05-21T03:14:51.639Z,26.3
2019-05-21T03:15:53.815Z,26.2
2019-05-21T03:16:55.973Z,26.2
2019-05-21T03:17:58.399Z,26.2
2019-05-21T03:19:00.837Z,26.2
2019-05-21T03:20:03.296Z,26.2
2019-05-21T03:21:05.489Z,26.1
2019-05-21T03:22:07.908Z,26.1
2019-05-21T03:23:10.329Z,26.1
2019-05-21T03:24:12.543Z,26.1
2019-05-21T03:25:14.975Z,26.1
2019-05-21T03:26:17.138Z,26
2019-05-21T03:27:19.747Z,26
2019-05-21T03:28:22.188Z,26
2019-05-21T03:29:24.622Z,26
2019-05-21T03:30:27.063Z,26
2019-05-21T03:31:29.222Z,26
2019-05-21T03:32:31.140Z,26
2019-05-21T03:33:33.386Z,26
2019-05-21T03:34:35.861Z,26
2019-05-21T03:35:38.556Z,25.9
2019-05-21T03:36:40.713Z,25.9
2019-05-21T03:37:43.166Z,25.9
2019-05-21T03:38:45.594Z,25.9
2019-05-21T03:39:48.034Z,25.9
2019-05-21T03:40:50.479Z,25.9
2019-05-21T03:41:52.642Z,25.9
2019-05-21T03:42:55.097Z,25.9
2019-05-21T03:43:57.550Z,25.9
2019-05-21T03:45:01.998Z,25.9
2019-05-21T03:46:08.471Z,25.9
2019-05-21T03:47:10.636Z,25.9
2019-05-21T03:48:13.202Z,25.9
2019-05-21T03:49:15.754Z,25.9
2019-05-21T03:50:18.014Z,25.9
2019-05-21T03:51:20.172Z,25.8
2019-05-21T03:52:22.616Z,25.8
2019-05-21T03:53:25.065Z,25.8
2019-05-21T03:54:27.541Z,25.8
2019-05-21T03:55:30.000Z,25.8
2019-05-21T03:56:32.187Z,25.8
2019-05-21T03:57:34.385Z,25.8
2019-05-21T03:58:36.906Z,25.8
2019-05-21T03:59:39.046Z,25.8
2019-05-21T04:00:41.504Z,25.8
2019-05-21T04:01:43.664Z,25.8
2019-05-21T04:02:45.510Z,25.8
2019-05-21T04:03:47.936Z,25.8
2019-05-21T04:04:50.384Z,25.8
2019-05-21T04:05:52.833Z,25.8
2019-05-21T04:06:55.264Z,25.8
2019-05-21T04:07:58.027Z,25.8
2019-05-21T04:09:00.465Z,25.8
2019-05-21T04:10:02.973Z,25.8
2019-05-21T04:11:05.164Z,25.8
2019-05-21T04:12:07.323Z,25.8
2019-05-21T04:13:10.448Z,25.8
2019-05-21T04:14:12.306Z,25.8
2019-05-21T04:15:14.757Z,25.8
2019-05-21T04:16:17.194Z,25.8
2019-05-21T04:17:19.066Z,25.8
2019-05-21T04:18:21.571Z,25.8
2019-05-21T04:19:23.731Z,25.8
2019-05-21T04:20:26.159Z,25.7
2019-05-21T04:21:28.322Z,25.7
2019-05-21T04:22:30.756Z,25.7
2019-05-21T04:23:33.207Z,25.7
2019-05-21T04:24:35.638Z,25.7
2019-05-21T04:25:38.094Z,25.7
2019-05-21T04:26:40.262Z,25.7
2019-05-21T04:27:42.735Z,25.7
2019-05-21T04:28:45.162Z,25.7
2019-05-21T04:29:47.616Z,25.7
2019-05-21T04:30:50.074Z,25.7
2019-05-21T04:31:52.232Z,25.7
2019-05-21T04:32:54.664Z,25.7
2019-05-21T04:33:56.837Z,25.7
2019-05-21T04:34:59.282Z,25.7
2019-05-21T04:36:01.427Z,25.7
2019-05-21T04:38:08.578Z,25.7
2019-05-21T04:39:11.179Z,25.7
2019-05-21T04:40:13.429Z,25.7
2019-05-21T04:41:15.869Z,25.7
2019-05-21T04:42:19.234Z,25.7
2019-05-21T04:43:21.669Z,25.7
2019-05-21T04:44:24.095Z,25.7
2019-05-21T04:45:26.270Z,25.7
2019-05-21T04:46:28.440Z,25.7
2019-05-21T04:47:30.862Z,25.7
2019-05-21T04:48:33.295Z,25.7
2019-05-21T04:49:35.707Z,25.7
2019-05-21T04:50:38.373Z,25.7
2019-05-21T04:51:40.799Z,25.7
2019-05-21T04:52:43.236Z,25.7
2019-05-21T04:53:45.397Z,25.7
2019-05-21T04:54:47.820Z,25.7
2019-05-21T04:55:50.254Z,25.7
2019-05-21T04:56:52.712Z,25.7
2019-05-21T04:57:54.870Z,25.7
2019-05-21T04:58:57.049Z,25.7
2019-05-21T04:59:59.473Z,25.7
2019-05-21T05:01:01.436Z,25.7
2019-05-21T05:02:03.927Z,25.7
2019-05-21T05:03:06.586Z,25.7
2019-05-21T05:04:09.213Z,25.6
2019-05-21T05:05:11.648Z,25.6
2019-05-21T05:06:14.079Z,25.7
2019-05-21T05:08:21.483Z,25.6
2019-05-21T05:09:24.117Z,25.6
2019-05-21T05:10:27.065Z,25.6
2019-05-21T05:11:29.669Z,25.6
2019-05-21T05:12:32.365Z,25.6
2019-05-21T05:13:35.043Z,25.6
2019-05-21T05:14:37.449Z,25.6
2019-05-21T05:15:39.913Z,25.6
2019-05-21T05:16:42.935Z,25.6
2019-05-21T05:17:45.073Z,25.6
2019-05-21T05:18:47.502Z,25.6
2019-05-21T05:19:49.354Z,25.6
2019-05-21T05:20:51.787Z,25.6
2019-05-21T05:21:54.218Z,25.6
2019-05-21T05:22:56.353Z,25.6
2019-05-21T05:23:58.859Z,25.6
2019-05-21T05:25:01.356Z,25.6
2019-05-21T05:26:03.705Z,25.6
2019-05-21T05:27:06.210Z,25.6
2019-05-21T05:28:08.089Z,25.6
2019-05-21T05:29:10.552Z,25.6
2019-05-21T05:30:12.982Z,25.6
2019-05-21T05:31:16.233Z,25.6
2019-05-21T05:32:18.663Z,25.6
2019-05-21T05:33:20.794Z,25.6
2019-05-21T05:34:23.241Z,25.6
2019-05-21T05:35:25.743Z,25.6
2019-05-21T05:36:27.615Z,25.6
2019-05-21T05:38:35.029Z,25.6
2019-05-21T05:39:36.919Z,25.6
2019-05-21T05:40:39.367Z,25.6
2019-05-21T05:41:41.807Z,25.6
2019-05-21T05:42:44.295Z,25.6
2019-05-21T05:43:46.920Z,25.6
2019-05-21T05:44:49.085Z,25.6
2019-05-21T05:45:51.598Z,25.6
2019-05-21T05:46:54.015Z,25.6
2019-05-21T05:47:56.462Z,25.6
2019-05-21T05:50:03.819Z,25.6
2019-05-21T05:51:05.946Z,25.6
2019-05-21T05:52:08.105Z,25.6
2019-05-21T05:53:10.004Z,25.6
2019-05-21T05:54:12.435Z,25.6
2019-05-21T05:55:14.867Z,25.6
2019-05-21T05:56:17.298Z,25.6
2019-05-21T05:57:19.734Z,25.6
2019-05-21T05:58:22.236Z,25.6
2019-05-21T05:59:24.378Z,25.6
2019-05-21T06:00:26.540Z,25.6
2019-05-21T06:01:28.997Z,25.6
2019-05-21T06:02:31.213Z,25.6
2019-05-21T06:03:33.649Z,25.6
2019-05-21T06:04:36.288Z,25.6
2019-05-21T06:05:38.898Z,25.6
2019-05-21T06:06:41.346Z,25.6
2019-05-21T06:08:48.785Z,25.6
2019-05-21T06:09:51.234Z,25.6
2019-05-21T06:10:53.398Z,25.6
2019-05-21T06:11:55.561Z,25.6
2019-05-21T06:12:58.017Z,25.6
2019-05-21T06:14:00.175Z,25.6
2019-05-21T06:15:03.167Z,25.6
2019-05-21T06:16:06.012Z,25.6
2019-05-21T06:17:08.465Z,25.6
2019-05-21T06:18:10.613Z,25.6
2019-05-21T06:19:13.049Z,25.6
2019-05-21T06:20:15.484Z,25.6
2019-05-21T06:21:17.645Z,25.6
2019-05-21T06:22:20.093Z,25.6
2019-05-21T06:23:22.530Z,25.6
2019-05-21T06:24:24.973Z,25.6
2019-05-21T06:25:27.202Z,25.6
2019-05-21T06:26:29.632Z,25.6
2019-05-21T06:27:32.072Z,25.6
2019-05-21T06:28:34.539Z,25.6
2019-05-21T06:30:41.425Z,25.5
2019-05-21T06:31:43.851Z,25.6
2019-05-21T06:32:46.278Z,25.5
2019-05-21T06:33:48.432Z,25.5
2019-05-21T06:34:50.338Z,25.6
2019-05-21T06:35:52.788Z,25.6
2019-05-21T06:36:55.242Z,25.6
2019-05-21T06:37:57.670Z,25.5
2019-05-21T06:39:00.135Z,25.5
2019-05-21T06:40:02.021Z,25.5
2019-05-21T06:41:04.234Z,25.5
2019-05-21T06:42:06.491Z,25.5
2019-05-21T06:43:08.955Z,25.5
2019-05-21T06:44:11.427Z,25.5
2019-05-21T06:45:13.861Z,25.5
2019-05-21T06:46:16.095Z,25.5
2019-05-21T06:47:18.536Z,25.5
2019-05-21T06:48:20.676Z,25.5
2019-05-21T06:49:23.118Z,25.5
2019-05-21T06:50:25.545Z,25.5
2019-05-21T06:51:27.993Z,25.5
2019-05-21T06:52:29.873Z,25.5
2019-05-21T06:53:32.032Z,25.5
2019-05-21T06:54:34.197Z,25.5
2019-05-21T06:55:36.067Z,25.5
2019-05-21T06:56:38.507Z,25.5
2019-05-21T06:57:40.657Z,25.5
2019-05-21T06:58:42.821Z,25.5
2019-05-21T06:59:45.279Z,25.5
2019-05-21T07:00:47.721Z,25.5
2019-05-21T07:01:49.884Z,25.5
2019-05-21T07:02:52.049Z,25.5
2019-05-21T07:03:54.477Z,25.5
2019-05-21T07:04:56.694Z,25.5
2019-05-21T07:06:00.675Z,25.5
2019-05-21T07:07:03.131Z,25.5
2019-05-21T07:08:05.013Z,25.5
2019-05-21T07:09:07.168Z,25.5
2019-05-21T07:10:09.598Z,25.5
2019-05-21T07:11:11.796Z,25.5
2019-05-21T07:12:13.987Z,25.5
2019-05-21T07:13:16.424Z,25.5
2019-05-21T07:14:18.903Z,25.5
2019-05-21T07:15:21.105Z,25.5
2019-05-21T07:16:23.279Z,25.5
2019-05-21T07:17:25.711Z,25.5
2019-05-21T07:18:27.865Z,25.5
2019-05-21T07:19:29.764Z,25.5
2019-05-21T07:20:32.193Z,25.5
2019-05-21T07:21:34.631Z,25.5
2019-05-21T07:22:37.188Z,25.5
2019-05-21T07:23:39.427Z,25.5
2019-05-21T07:24:41.320Z,25.5
2019-05-21T07:25:43.787Z,25.5
2019-05-21T07:26:46.233Z,25.5
2019-05-21T07:27:48.668Z,25.5
2019-05-21T07:28:50.350Z,25.5
2019-05-21T07:29:59.061Z,25.5
2019-05-21T07:31:01.504Z,25.5
2019-05-21T07:32:03.653Z,25.5
2019-05-21T07:33:07.652Z,25.5
2019-05-21T07:34:10.093Z,25.5
2019-05-21T07:35:12.531Z,25.5
2019-05-21T07:36:14.967Z,25.5
2019-05-21T07:37:17.135Z,25.5
2019-05-21T07:38:19.611Z,25.5
2019-05-21T07:39:21.787Z,25.5
2019-05-21T07:40:23.991Z,25.5
2019-05-21T07:41:26.415Z,25.5
2019-05-21T07:42:28.722Z,25.5
2019-05-21T07:43:31.236Z,25.5
2019-05-21T07:44:33.409Z,25.5
2019-05-21T07:45:36.449Z,25.5
2019-05-21T07:46:40.817Z,25.5
2019-05-21T07:47:42.682Z,25.5
2019-05-21T07:48:44.833Z,25.5
2019-05-21T07:49:47.276Z,25.5
2019-05-21T07:50:49.964Z,25.5
2019-05-21T07:51:52.385Z,25.5
2019-05-21T07:52:54.813Z,25.5
2019-05-21T07:53:57.017Z,25.5
2019-05-21T07:54:59.167Z,25.5
2019-05-21T07:56:01.318Z,25.5
2019-05-21T07:57:03.746Z,25.5
2019-05-21T07:58:06.174Z,25.5
2019-05-21T07:59:08.301Z,25.5
2019-05-21T08:00:10.737Z,25.5
2019-05-21T08:01:12.906Z,25.5
2019-05-21T08:02:15.341Z,25.5
2019-05-21T08:03:17.499Z,25.5
2019-05-21T08:04:19.661Z,25.5
2019-05-21T08:05:21.817Z,25.5
2019-05-21T08:06:23.955Z,25.5
2019-05-21T08:07:26.105Z,25.5
2019-05-21T08:08:28.269Z,25.5
2019-05-21T08:09:30.449Z,25.5
2019-05-21T08:10:32.873Z,25.5
2019-05-21T08:11:35.064Z,25.5
2019-05-21T08:13:42.216Z,25.5
2019-05-21T08:14:44.647Z,25.5
2019-05-21T08:15:47.065Z,25.5
2019-05-21T08:16:49.235Z,25.5
2019-05-21T08:17:51.676Z,25.5
2019-05-21T08:18:54.092Z,25.5
2019-05-21T08:21:01.511Z,25.5
2019-05-21T08:22:03.943Z,25.5
2019-05-21T08:23:06.376Z,25.6
2019-05-21T08:24:08.868Z,25.6
2019-05-21T08:26:16.273Z,25.6
2019-05-21T08:27:18.689Z,25.5
2019-05-21T08:28:20.855Z,25.6
2019-05-21T08:29:23.330Z,25.5
2019-05-21T08:30:25.765Z,25.6
2019-05-21T08:31:27.973Z,25.5
2019-05-21T08:32:30.168Z,25.5
2019-05-21T08:33:32.335Z,25.5
2019-05-21T08:34:34.753Z,25.5
2019-05-21T08:35:37.183Z,25.5
2019-05-21T08:36:39.654Z,25.5
2019-05-21T08:37:42.075Z,25.5
2019-05-21T08:38:44.249Z,25.5
2019-05-21T08:39:46.403Z,25.5
2019-05-21T08:40:48.558Z,25.5
2019-05-21T08:41:50.998Z,25.5
2019-05-21T08:42:53.449Z,25.5
2019-05-21T08:43:55.615Z,25.5
2019-05-21T08:44:57.777Z,25.5
2019-05-21T08:45:59.931Z,25.5
2019-05-21T08:47:02.361Z,25.5
2019-05-21T08:48:04.549Z,25.5
2019-05-21T08:49:06.772Z,25.5
2019-05-21T08:50:09.218Z,25.5
2019-05-21T08:51:11.796Z,25.5
2019-05-21T08:52:14.263Z,25.5
2019-05-21T08:53:16.684Z,25.5
2019-05-21T08:54:18.828Z,25.5
2019-05-21T08:55:21.262Z,25.5
2019-05-21T08:56:23.706Z,25.5
2019-05-21T08:57:26.146Z,25.5
2019-05-21T08:58:28.015Z,25.5
2019-05-21T08:59:30.184Z,25.5
2019-05-21T09:00:32.654Z,25.5
2019-05-21T09:01:34.518Z,25.5
2019-05-21T09:02:36.657Z,25.5
2019-05-21T09:03:38.827Z,25.5
2019-05-21T09:05:46.121Z,25.5
2019-05-21T09:06:48.561Z,25.5
2019-05-21T09:08:55.716Z,25.5
2019-05-21T09:09:58.152Z,25.5
2019-05-21T09:11:00.313Z,25.5
2019-05-21T09:12:02.749Z,25.5
2019-05-21T09:13:05.186Z,25.5
2019-05-21T09:14:07.331Z,25.5
2019-05-21T09:15:09.769Z,25.5
2019-05-21T09:16:11.991Z,25.5
2019-05-21T09:17:14.135Z,25.5
2019-05-21T09:18:16.566Z,25.5
2019-05-21T09:19:18.716Z,25.5
2019-05-21T09:20:20.333Z,25.5
2019-05-21T09:21:22.501Z,25.5
2019-05-21T09:22:24.632Z,25.5
2019-05-21T09:23:26.801Z,25.5
2019-05-21T09:24:29.037Z,25.5
2019-05-21T09:25:31.473Z,25.5
2019-05-21T09:26:33.901Z,25.5
2019-05-21T09:27:35.838Z,25.5
2019-05-21T09:28:38.255Z,25.5
2019-05-21T09:29:40.157Z,25.5
2019-05-21T09:30:42.569Z,25.5
2019-05-21T09:31:44.445Z,25.5
2019-05-21T09:32:46.325Z,25.5
2019-05-21T09:33:48.502Z,25.5
2019-05-21T09:34:50.654Z,25.5
2019-05-21T09:35:52.812Z,25.5
2019-05-21T09:36:55.241Z,25.5
2019-05-21T09:37:57.675Z,25.5
2019-05-21T09:38:59.823Z,25.5
2019-05-21T09:40:02.548Z,25.5
2019-05-21T09:41:04.764Z,25.5
2019-05-21T09:42:06.919Z,25.5
2019-05-21T09:43:09.398Z,25.5
2019-05-21T09:44:11.817Z,25.5
2019-05-21T09:45:13.710Z,25.5
2019-05-21T09:46:16.134Z,25.5
2019-05-21T09:47:18.015Z,25.5
2019-05-21T09:48:20.473Z,25.5
2019-05-21T09:49:22.905Z,25.5
2019-05-21T09:50:24.804Z,25.5
2019-05-21T09:51:26.951Z,25.5
2019-05-21T09:52:29.393Z,25.5
2019-05-21T09:53:31.085Z,25.5
2019-05-21T09:54:33.247Z,25.5
2019-05-21T09:55:35.376Z,25.5
2019-05-21T09:56:37.802Z,25.5
2019-05-21T09:57:39.660Z,25.5
2019-05-21T09:58:42.083Z,25.5
2019-05-21T09:59:44.257Z,25.5
2019-05-21T10:00:46.695Z,25.5
2019-05-21T10:01:49.586Z,25.5
2019-05-21T10:02:51.737Z,25.5
2019-05-21T10:03:54.172Z,25.5
2019-05-21T10:04:56.608Z,25.5
2019-05-21T10:05:59.042Z,25.5
2019-05-21T10:07:01.253Z,25.5
2019-05-21T10:08:03.745Z,25.5
2019-05-21T10:09:05.916Z,25.5
2019-05-21T10:10:08.114Z,25.5
2019-05-21T10:11:10.586Z,25.5
2019-05-21T10:12:12.535Z,25.5
2019-05-21T10:13:14.419Z,25.5
2019-05-21T10:14:16.873Z,25.5
2019-05-21T10:15:19.343Z,25.5
2019-05-21T10:16:21.778Z,25.5
2019-05-21T10:17:23.952Z,25.5
2019-05-21T10:18:25.857Z,25.5
2019-05-21T10:19:28.015Z,25.5
2019-05-21T10:20:30.165Z,25.5
2019-05-21T10:21:32.321Z,25.5
2019-05-21T10:22:34.475Z,25.5
2019-05-21T10:23:36.638Z,25.5
2019-05-21T10:24:37.968Z,25.5
2019-05-21T10:25:40.413Z,25.5
2019-05-21T10:26:42.848Z,25.5
2019-05-21T10:27:45.093Z,25.5
2019-05-21T10:28:47.521Z,25.5
2019-05-21T10:29:49.677Z,25.5
2019-05-21T10:30:52.102Z,25.5
2019-05-21T10:31:54.544Z,25.5
2019-05-21T10:32:56.742Z,25.5
2019-05-21T10:33:58.903Z,25.5
2019-05-21T10:35:01.045Z,25.5
2019-05-21T10:36:03.494Z,25.5
2019-05-21T10:37:05.923Z,25.5
2019-05-21T10:38:07.830Z,25.5
2019-05-21T10:39:10.245Z,25.5
2019-05-21T10:40:12.673Z,25.5
2019-05-21T10:41:14.830Z,25.5
2019-05-21T10:42:17.262Z,25.5
2019-05-21T10:43:19.681Z,25.5
2019-05-21T10:44:22.107Z,25.5
2019-05-21T10:45:24.562Z,25.5
2019-05-21T10:46:27.010Z,25.5
2019-05-21T10:47:29.530Z,25.5
2019-05-21T10:48:31.686Z,25.5
2019-05-21T10:49:33.855Z,25.5
2019-05-21T10:50:36.299Z,25.5
2019-05-21T10:51:38.721Z,25.5
2019-05-21T10:52:41.271Z,25.5
2019-05-21T10:53:43.162Z,25.5
2019-05-21T10:54:45.579Z,25.5
2019-05-21T10:55:48.013Z,25.5
2019-05-21T10:56:50.447Z,25.5
2019-05-21T10:57:52.598Z,25.5
2019-05-21T10:58:54.718Z,25.5
2019-05-21T10:59:56.629Z,25.5
2019-05-21T11:00:59.048Z,25.5
2019-05-21T11:02:01.218Z,25.5
2019-05-21T11:03:03.744Z,25.5
2019-05-21T11:04:05.166Z,25.5
2019-05-21T11:05:07.612Z,25.6
2019-05-21T11:06:11.562Z,25.5
2019-05-21T11:07:13.447Z,25.6
2019-05-21T11:09:20.903Z,25.5
2019-05-21T11:10:23.081Z,25.6
2019-05-21T11:11:25.241Z,25.6
2019-05-21T11:12:27.667Z,25.6
2019-05-21T11:13:30.137Z,25.6
2019-05-21T11:14:32.569Z,25.6
2019-05-21T11:15:35.015Z,25.5
2019-05-21T11:16:37.435Z,25.6
2019-05-21T11:18:44.585Z,25.5
2019-05-21T11:19:46.838Z,25.6
2019-05-21T11:20:48.973Z,25.6
2019-05-21T11:21:51.133Z,25.6
2019-05-21T11:22:53.283Z,25.6
2019-05-21T11:23:55.874Z,25.6
2019-05-21T11:24:58.349Z,25.6
2019-05-21T11:26:00.784Z,25.6
2019-05-21T11:28:07.395Z,25.6
2019-05-21T11:29:09.826Z,25.6
2019-05-21T11:30:12.243Z,25.6
2019-05-21T11:31:14.673Z,25.6
2019-05-21T11:32:17.254Z,25.6
2019-05-21T11:33:19.415Z,25.5
2019-05-21T11:34:21.574Z,25.5
2019-05-21T11:35:23.536Z,25.5
2019-05-21T11:36:26.003Z,25.5
2019-05-21T11:37:28.164Z,25.5
2019-05-21T11:39:35.297Z,25.5
2019-05-21T11:40:38.301Z,25.5
2019-05-21T11:41:40.734Z,25.5
2019-05-21T11:42:43.175Z,25.5
2019-05-21T11:43:45.803Z,25.5
2019-05-21T11:44:47.666Z,25.5
2019-05-21T11:45:50.096Z,25.5
2019-05-21T11:46:52.545Z,25.5
2019-05-21T11:47:55.831Z,25.5
2019-05-21T11:48:58.343Z,25.5
2019-05-21T11:50:00.779Z,25.5
2019-05-21T11:51:02.692Z,25.5
2019-05-21T11:52:05.139Z,25.5
2019-05-21T11:53:07.873Z,25.5
2019-05-21T11:54:10.421Z,25.5
2019-05-21T11:55:12.874Z,25.5
2019-05-21T11:56:15.315Z,25.5
2019-05-21T11:57:17.727Z,25.5
2019-05-21T11:58:20.106Z,25.5
2019-05-21T11:59:22.555Z,25.5
2019-05-21T12:00:24.485Z,25.5
2019-05-21T12:01:26.912Z,25.5
2019-05-21T12:02:28.537Z,25.5
2019-05-21T12:03:30.695Z,25.5
2019-05-21T12:04:32.854Z,25.5
2019-05-21T12:05:35.304Z,25.5
2019-05-21T12:06:37.819Z,25.5
2019-05-21T12:07:40.422Z,25.5
2019-05-21T12:09:47.610Z,25.5
2019-05-21T12:10:49.508Z,25.5
2019-05-21T12:11:51.933Z,25.5
2019-05-21T12:12:54.355Z,25.5
2019-05-21T12:13:56.820Z,25.5
2019-05-21T12:14:58.977Z,25.5
2019-05-21T12:16:00.866Z,25.5
2019-05-21T12:17:03.308Z,25.5
2019-05-21T12:18:05.481Z,25.5
2019-05-21T12:19:09.428Z,25.5
2019-05-21T12:20:11.588Z,25.5
2019-05-21T12:21:13.721Z,25.5
2019-05-21T12:22:16.150Z,25.5
2019-05-21T12:23:18.568Z,25.5
2019-05-21T12:24:21.001Z,25.5
2019-05-21T12:25:23.379Z,25.5
2019-05-21T12:26:26.110Z,25.5
2019-05-21T12:27:28.251Z,25.5
2019-05-21T12:28:30.707Z,25.5
2019-05-21T12:29:35.372Z,25.5
2019-05-21T12:30:37.309Z,25.5
2019-05-21T12:31:39.480Z,25.5
2019-05-21T12:32:41.986Z,25.5
2019-05-21T12:33:44.415Z,25.5
2019-05-21T12:34:46.846Z,25.5
2019-05-21T12:35:49.272Z,25.5
2019-05-21T12:36:51.427Z,25.5
2019-05-21T12:37:53.868Z,25.5
2019-05-21T12:39:11.531Z,25.5
2019-05-21T12:40:01.985Z,25.5
2019-05-21T12:41:04.568Z,25.5
2019-05-21T12:42:07.162Z,25.5
2019-05-21T12:43:09.070Z,25.5
2019-05-21T12:44:11.370Z,25.5
2019-05-21T12:45:13.521Z,25.5
2019-05-21T12:46:15.689Z,25.5
2019-05-21T12:47:18.111Z,25.5
2019-05-21T12:48:20.541Z,25.5
2019-05-21T12:49:22.684Z,25.5
2019-05-21T12:50:25.190Z,25.5
2019-05-21T12:51:27.612Z,25.5
2019-05-21T12:52:29.782Z,25.5
2019-05-21T12:53:36.209Z,25.5
2019-05-21T12:54:38.350Z,25.5
2019-05-21T12:55:41.063Z,25.5
2019-05-21T12:56:42.962Z,25.5
2019-05-21T12:57:45.118Z,25.5
2019-05-21T12:58:47.559Z,25.5
2019-05-21T12:59:49.987Z,25.5
2019-05-21T13:00:52.503Z,25.5
2019-05-21T13:01:54.933Z,25.5
2019-05-21T13:02:57.202Z,25.5
2019-05-21T13:03:58.871Z,25.5
2019-05-21T13:05:01.297Z,25.5
2019-05-21T13:06:03.765Z,25.5
2019-05-21T13:07:06.203Z,25.5
2019-05-21T13:08:08.375Z,25.5
2019-05-21T13:09:10.874Z,25.5
2019-05-21T13:10:13.046Z,25.5
2019-05-21T13:11:15.489Z,25.5
2019-05-21T13:12:17.634Z,25.5
2019-05-21T13:13:19.802Z,25.5
2019-05-21T13:14:21.998Z,25.5
2019-05-21T13:15:24.438Z,25.5
2019-05-21T13:16:26.586Z,25.5
2019-05-21T13:17:29.013Z,25.5
2019-05-21T13:18:31.169Z,25.5
2019-05-21T13:19:33.370Z,25.5
2019-05-21T13:20:35.809Z,25.5
2019-05-21T13:21:38.286Z,25.5
2019-05-21T13:22:40.504Z,25.5
2019-05-21T13:23:42.959Z,25.5
2019-05-21T13:24:45.158Z,25.5
2019-05-21T13:25:47.386Z,25.5
2019-05-21T13:26:49.543Z,25.5
2019-05-21T13:27:51.689Z,25.5
2019-05-21T13:28:54.185Z,25.5
2019-05-21T13:29:56.395Z,25.5
2019-05-21T13:30:58.876Z,25.5
2019-05-21T13:32:01.307Z,25.5
2019-05-21T13:33:03.444Z,25.5
2019-05-21T13:34:05.593Z,25.5
2019-05-21T13:35:08.219Z,25.4
2019-05-21T13:36:10.677Z,25.5
2019-05-21T13:37:13.265Z,25.5
2019-05-21T13:38:15.419Z,25.4
2019-05-21T13:39:17.293Z,25.4
2019-05-21T13:40:19.755Z,25.4
2019-05-21T13:41:21.932Z,25.4
2019-05-21T13:42:24.364Z,25.4
2019-05-21T13:43:26.797Z,25.4
2019-05-21T13:44:29.242Z,25.4
2019-05-21T13:45:31.687Z,25.4
2019-05-21T13:47:39.099Z,25.4
2019-05-21T13:48:40.988Z,25.4
2019-05-21T13:49:43.412Z,25.4
2019-05-21T13:50:45.567Z,25.4
2019-05-21T13:51:47.700Z,25.4
2019-05-21T13:52:50.129Z,25.4
2019-05-21T13:53:53.068Z,25.4
2019-05-21T13:54:55.515Z,25.4
2019-05-21T13:55:57.666Z,25.4
2019-05-21T13:56:59.833Z,25.5
2019-05-21T13:58:01.753Z,25.4
2019-05-21T13:59:03.910Z,25.4
2019-05-21T14:00:06.541Z,25.4
2019-05-21T14:01:08.986Z,25.4
2019-05-21T14:02:11.742Z,25.4
2019-05-21T14:03:14.174Z,25.4
2019-05-21T14:04:16.339Z,25.4
2019-05-21T14:05:18.212Z,25.4
2019-05-21T14:06:21.683Z,25.4
2019-05-21T14:07:24.287Z,25.4
2019-05-21T14:08:26.458Z,25.4
2019-05-21T14:09:28.795Z,25.4
2019-05-21T14:10:31.413Z,25.4
2019-05-21T14:11:33.852Z,25.4
2019-05-21T14:12:36.074Z,25.4